sensor_id;sensor_type;location;lat;lon;timestamp;pressure;altitude;pressure_sealevel;temperature;humidity
16834;BME280;8533;48.426;10.868;2022-09-09T00:00:22;96046.80;;;13.48;95.46
16834;BME280;8533;48.426;10.868;2022-09-09T00:05:49;96046.55;;;13.42;95.18
16834;BME280;8533;48.426;10.868;2022-09-09T00:08:25;96045.23;;;13.40;95.75
16834;BME280;8533;48.426;10.868;2022-09-09T00:11:00;96042.10;;;13.38;96.01
16834;BME280;8533;48.426;10.868;2022-09-09T00:13:48;96037.61;;;13.41;96.39
16834;BME280;8533;48.426;10.868;2022-09-09T00:16:28;96039.72;;;13.41;96.27
16834;BME280;8533;48.426;10.868;2022-09-09T00:19:07;96035.25;;;13.42;96.62
16834;BME280;8533;48.426;10.868;2022-09-09T00:21:35;96038.13;;;13.40;96.29
16834;BME280;8533;48.426;10.868;2022-09-09T00:24:26;96045.23;;;13.40;96.60
16834;BME280;8533;48.426;10.868;2022-09-09T00:26:44;96034.98;;;13.41;96.37
16834;BME280;8533;48.426;10.868;2022-09-09T00:29:36;96038.39;;;13.38;95.91
16834;BME280;8533;48.426;10.868;2022-09-09T00:32:11;96037.09;;;13.41;95.91
16834;BME280;8533;48.426;10.868;2022-09-09T00:34:37;96031.84;;;13.44;95.73
16834;BME280;8533;48.426;10.868;2022-09-09T00:37:07;96033.92;;;13.47;95.57
16834;BME280;8533;48.426;10.868;2022-09-09T00:39:40;96039.70;;;13.51;95.62
16834;BME280;8533;48.426;10.868;2022-09-09T00:42:16;96035.48;;;13.55;95.43
16834;BME280;8533;48.426;10.868;2022-09-09T00:44:49;96039.70;;;13.59;95.33
16834;BME280;8533;48.426;10.868;2022-09-09T00:47:46;96041.53;;;13.61;95.22
16834;BME280;8533;48.426;10.868;2022-09-09T00:53:27;96033.62;;;13.63;94.20
16834;BME280;8533;48.426;10.868;2022-09-09T00:56:12;96028.37;;;13.63;94.19
16834;BME280;8533;48.426;10.868;2022-09-09T00:58:48;96032.86;;;13.60;94.01
16834;BME280;8533;48.426;10.868;2022-09-09T01:01:14;96035.22;;;13.57;94.71
16834;BME280;8533;48.426;10.868;2022-09-09T01:03:55;96038.37;;;13.56;94.65
16834;BME280;8533;48.426;10.868;2022-09-09T01:06:34;96039.72;;;13.54;94.80
16834;BME280;8533;48.426;10.868;2022-09-09T01:09:04;96033.92;;;13.49;95.11
16834;BME280;8533;48.426;10.868;2022-09-09T01:16:58;96030.52;;;13.38;95.76
16834;BME280;8533;48.426;10.868;2022-09-09T01:19:37;96034.48;;;13.36;96.07
16834;BME280;8533;48.426;10.868;2022-09-09T01:22:03;96032.37;;;13.33;96.13
16834;BME280;8533;48.426;10.868;2022-09-09T01:24:43;96036.05;;;13.32;96.57
16834;BME280;8533;48.426;10.868;2022-09-09T01:27:09;96028.19;;;13.29;96.64
16834;BME280;8533;48.426;10.868;2022-09-09T01:29:38;96018.72;;;13.26;96.80
16834;BME280;8533;48.426;10.868;2022-09-09T01:37:57;96018.72;;;13.16;97.22
16834;BME280;8533;48.426;10.868;2022-09-09T01:40:25;96019.75;;;13.10;97.65
16834;BME280;8533;48.426;10.868;2022-09-09T01:42:53;96014.75;;;13.08;97.39
16834;BME280;8533;48.426;10.868;2022-09-09T01:45:24;96020.27;;;13.07;97.54
16834;BME280;8533;48.426;10.868;2022-09-09T01:47:53;96020.78;;;13.06;97.94
16834;BME280;8533;48.426;10.868;2022-09-09T01:50:21;96016.05;;;13.06;97.78
16834;BME280;8533;48.426;10.868;2022-09-09T01:52:51;96019.75;;;13.02;97.88
16834;BME280;8533;48.426;10.868;2022-09-09T01:55:23;96014.52;;;12.97;98.11
16834;BME280;8533;48.426;10.868;2022-09-09T02:00:37;96016.88;;;12.96;98.63
16834;BME280;8533;48.426;10.868;2022-09-09T02:08:21;96013.71;;;13.02;98.75
16834;BME280;8533;48.426;10.868;2022-09-09T02:10:59;96008.72;;;13.03;98.89
16834;BME280;8533;48.426;10.868;2022-09-09T02:13:29;96012.92;;;13.01;98.79
16834;BME280;8533;48.426;10.868;2022-09-09T02:16:17;96003.72;;;12.98;98.97
16834;BME280;8533;48.426;10.868;2022-09-09T02:18:50;96005.56;;;12.98;98.96
16834;BME280;8533;48.426;10.868;2022-09-09T02:21:17;96004.27;;;12.95;98.97
16834;BME280;8533;48.426;10.868;2022-09-09T02:23:47;95997.95;;;12.94;99.43
16834;BME280;8533;48.426;10.868;2022-09-09T02:26:18;95995.59;;;12.92;99.36
16834;BME280;8533;48.426;10.868;2022-09-09T02:28:49;95991.13;;;12.93;99.65
16834;BME280;8533;48.426;10.868;2022-09-09T02:31:20;95981.14;;;12.90;99.38
16834;BME280;8533;48.426;10.868;2022-09-09T02:33:56;95985.37;;;12.88;99.24
16834;BME280;8533;48.426;10.868;2022-09-09T02:36:24;95981.69;;;12.87;99.61
16834;BME280;8533;48.426;10.868;2022-09-09T02:38:53;95986.67;;;12.86;99.54
16834;BME280;8533;48.426;10.868;2022-09-09T02:41:24;95987.46;;;12.86;100.00
16834;BME280;8533;48.426;10.868;2022-09-09T02:43:52;95974.06;;;12.85;99.60
16834;BME280;8533;48.426;10.868;2022-09-09T02:49:33;95976.95;;;12.84;99.43
16834;BME280;8533;48.426;10.868;2022-09-09T02:52:00;95980.88;;;12.81;99.20
16834;BME280;8533;48.426;10.868;2022-09-09T02:54:32;95983.52;;;12.79;99.63
16834;BME280;8533;48.426;10.868;2022-09-09T02:57:03;95983.25;;;12.78;99.61
16834;BME280;8533;48.426;10.868;2022-09-09T02:59:31;95984.30;;;12.77;99.72
16834;BME280;8533;48.426;10.868;2022-09-09T03:01:59;95989.03;;;12.77;99.71
16834;BME280;8533;48.426;10.868;2022-09-09T03:04:27;95984.57;;;12.78;99.69
16834;BME280;8533;48.426;10.868;2022-09-09T03:06:55;95980.62;;;12.78;99.76
16834;BME280;8533;48.426;10.868;2022-09-09T03:09:23;95980.62;;;12.78;99.62
16834;BME280;8533;48.426;10.868;2022-09-09T03:11:51;95989.04;;;12.80;99.66
16834;BME280;8533;48.426;10.868;2022-09-09T03:14:21;95987.46;;;12.79;99.45
16834;BME280;8533;48.426;10.868;2022-09-09T03:16:51;95986.68;;;12.81;99.44
16834;BME280;8533;48.426;10.868;2022-09-09T03:19:18;95991.13;;;12.83;99.20
16834;BME280;8533;48.426;10.868;2022-09-09T03:21:47;95991.66;;;12.85;99.25
16834;BME280;8533;48.426;10.868;2022-09-09T03:24:15;95991.91;;;12.83;99.04
16834;BME280;8533;48.426;10.868;2022-09-09T03:26:43;95997.95;;;12.84;99.04
16834;BME280;8533;48.426;10.868;2022-09-09T03:29:13;95996.91;;;12.87;99.01
16834;BME280;8533;48.426;10.868;2022-09-09T03:31:41;95999.27;;;12.94;98.54
16834;BME280;8533;48.426;10.868;2022-09-09T03:34:09;96000.33;;;12.95;98.50
16834;BME280;8533;48.426;10.868;2022-09-09T03:36:36;96000.33;;;12.95;98.35
16834;BME280;8533;48.426;10.868;2022-09-09T03:39:04;95998.76;;;12.97;98.26
16834;BME280;8533;48.426;10.868;2022-09-09T03:41:31;95996.11;;;12.99;98.09
16834;BME280;8533;48.426;10.868;2022-09-09T03:44:00;95997.42;;;12.99;97.81
16834;BME280;8533;48.426;10.868;2022-09-09T03:46:27;95996.63;;;12.99;97.88
16834;BME280;8533;48.426;10.868;2022-09-09T03:48:55;95997.42;;;12.99;98.06
16834;BME280;8533;48.426;10.868;2022-09-09T03:51:23;95995.05;;;12.98;97.97
16834;BME280;8533;48.426;10.868;2022-09-09T03:53:50;95993.24;;;12.96;97.86
16834;BME280;8533;48.426;10.868;2022-09-09T03:56:19;95986.41;;;12.95;97.90
16834;BME280;8533;48.426;10.868;2022-09-09T03:58:48;95987.17;;;12.98;98.02
16834;BME280;8533;48.426;10.868;2022-09-09T04:01:15;95981.42;;;12.96;97.97
16834;BME280;8533;48.426;10.868;2022-09-09T04:03:44;95976.97;;;12.96;98.26
16834;BME280;8533;48.426;10.868;2022-09-09T04:06:13;95977.74;;;12.94;98.47
16834;BME280;8533;48.426;10.868;2022-09-09T04:08:41;95971.97;;;12.95;98.30
16834;BME280;8533;48.426;10.868;2022-09-09T04:11:09;95976.69;;;12.93;98.06
16834;BME280;8533;48.426;10.868;2022-09-09T04:13:37;95973.28;;;12.92;98.21
16834;BME280;8533;48.426;10.868;2022-09-09T04:16:05;95974.87;;;12.88;98.15
16834;BME280;8533;48.426;10.868;2022-09-09T04:18:34;95976.44;;;12.87;98.13
16834;BME280;8533;48.426;10.868;2022-09-09T04:21:01;95967.77;;;12.84;98.67
16834;BME280;8533;48.426;10.868;2022-09-09T04:23:29;95977.73;;;12.84;98.90
16834;BME280;8533;48.426;10.868;2022-09-09T04:25:58;95971.44;;;12.85;99.75
16834;BME280;8533;48.426;10.868;2022-09-09T04:28:28;95974.33;;;12.86;99.89
16834;BME280;8533;48.426;10.868;2022-09-09T04:31:03;95979.83;;;12.90;99.84
16834;BME280;8533;48.426;10.868;2022-09-09T04:33:25;95974.59;;;12.95;100.00
16834;BME280;8533;48.426;10.868;2022-09-09T04:35:53;95975.63;;;12.99;100.00
16834;BME280;8533;48.426;10.868;2022-09-09T04:38:21;95978.79;;;13.01;99.79
16834;BME280;8533;48.426;10.868;2022-09-09T04:40:53;95985.60;;;13.07;99.13
16834;BME280;8533;48.426;10.868;2022-09-09T04:43:21;95983.77;;;13.10;99.46
16834;BME280;8533;48.426;10.868;2022-09-09T04:45:50;95986.16;;;13.17;99.44
16834;BME280;8533;48.426;10.868;2022-09-09T04:48:18;95983.80;;;13.20;99.46
16834;BME280;8533;48.426;10.868;2022-09-09T04:51:20;95979.84;;;13.25;98.93
16834;BME280;8533;48.426;10.868;2022-09-09T04:53:21;95976.41;;;13.30;98.89
16834;BME280;8533;48.426;10.868;2022-09-09T04:55:49;95979.30;;;13.33;98.81
16834;BME280;8533;48.426;10.868;2022-09-09T04:58:16;95975.63;;;13.37;99.03
16834;BME280;8533;48.426;10.868;2022-09-09T05:00:44;95976.16;;;13.36;99.10
16834;BME280;8533;48.426;10.868;2022-09-09T05:03:12;95976.92;;;13.40;99.03
16834;BME280;8533;48.426;10.868;2022-09-09T05:05:40;95976.92;;;13.42;98.30
16834;BME280;8533;48.426;10.868;2022-09-09T05:08:08;95976.63;;;13.46;98.78
16834;BME280;8533;48.426;10.868;2022-09-09T05:10:38;95980.31;;;13.48;98.90
16834;BME280;8533;48.426;10.868;2022-09-09T05:13:08;95987.39;;;13.55;98.77
16834;BME280;8533;48.426;10.868;2022-09-09T05:15:35;95990.02;;;13.60;98.88
16834;BME280;8533;48.426;10.868;2022-09-09T05:18:03;95994.73;;;13.65;97.56
16834;BME280;8533;48.426;10.868;2022-09-09T05:20:30;95993.66;;;13.71;96.99
16834;BME280;8533;48.426;10.868;2022-09-09T05:22:58;95998.65;;;13.73;95.98
16834;BME280;8533;48.426;10.868;2022-09-09T05:25:25;96001.80;;;13.78;95.39
16834;BME280;8533;48.426;10.868;2022-09-09T05:27:53;96012.55;;;13.79;95.05
16834;BME280;8533;48.426;10.868;2022-09-09T05:30:21;96021.52;;;13.78;94.74
16834;BME280;8533;48.426;10.868;2022-09-09T05:32:50;96022.04;;;13.72;94.68
16834;BME280;8533;48.426;10.868;2022-09-09T05:35:18;96032.31;;;13.63;93.49
16834;BME280;8533;48.426;10.868;2022-09-09T05:37:46;96048.61;;;13.63;93.71
16834;BME280;8533;48.426;10.868;2022-09-09T05:40:14;96047.84;;;13.60;93.47
16834;BME280;8533;48.426;10.868;2022-09-09T05:42:42;96061.52;;;13.52;94.00
16834;BME280;8533;48.426;10.868;2022-09-09T05:45:10;96058.38;;;13.45;94.17
16834;BME280;8533;48.426;10.868;2022-09-09T05:47:37;96057.56;;;13.47;93.95
16834;BME280;8533;48.426;10.868;2022-09-09T05:50:05;96064.13;;;13.47;94.16
16834;BME280;8533;48.426;10.868;2022-09-09T05:52:33;96054.94;;;13.47;94.35
16834;BME280;8533;48.426;10.868;2022-09-09T05:55:02;96066.52;;;13.53;95.48
16834;BME280;8533;48.426;10.868;2022-09-09T05:57:31;96062.03;;;13.59;96.33
16834;BME280;8533;48.426;10.868;2022-09-09T05:59:59;96059.94;;;13.61;96.65
16834;BME280;8533;48.426;10.868;2022-09-09T06:02:26;96053.86;;;13.63;97.58
16834;BME280;8533;48.426;10.868;2022-09-09T06:04:54;96053.61;;;13.67;96.87
16834;BME280;8533;48.426;10.868;2022-09-09T06:07:22;96058.84;;;13.72;97.09
16834;BME280;8533;48.426;10.868;2022-09-09T06:09:49;96056.20;;;13.80;97.84
16834;BME280;8533;48.426;10.868;2022-09-09T06:12:17;96054.07;;;13.87;96.88
16834;BME280;8533;48.426;10.868;2022-09-09T06:14:45;96053.29;;;13.94;96.54
16834;BME280;8533;48.426;10.868;2022-09-09T06:17:12;96052.73;;;14.02;96.11
16834;BME280;8533;48.426;10.868;2022-09-09T06:19:40;96059.52;;;14.13;95.79
16834;BME280;8533;48.426;10.868;2022-09-09T06:22:07;96060.80;;;14.21;94.69
16834;BME280;8533;48.426;10.868;2022-09-09T06:24:36;96057.08;;;14.29;94.77
16834;BME280;8533;48.426;10.868;2022-09-09T06:27:04;96056.55;;;14.35;93.94
16834;BME280;8533;48.426;10.868;2022-09-09T06:29:31;96055.50;;;14.41;93.99
16834;BME280;8533;48.426;10.868;2022-09-09T06:31:59;96049.67;;;14.44;93.03
16834;BME280;8533;48.426;10.868;2022-09-09T06:34:26;96052.27;;;14.51;93.58
16834;BME280;8533;48.426;10.868;2022-09-09T06:36:54;96055.68;;;14.55;93.45
16834;BME280;8533;48.426;10.868;2022-09-09T06:39:24;96056.43;;;14.60;93.59
16834;BME280;8533;48.426;10.868;2022-09-09T06:41:52;96051.68;;;14.65;94.46
16834;BME280;8533;48.426;10.868;2022-09-09T06:44:19;96042.69;;;14.68;94.08
16834;BME280;8533;48.426;10.868;2022-09-09T06:46:48;96045.05;;;14.72;93.44
16834;BME280;8533;48.426;10.868;2022-09-09T06:49:16;96038.42;;;14.77;93.30
16834;BME280;8533;48.426;10.868;2022-09-09T06:51:43;96036.25;;;14.89;92.66
16834;BME280;8533;48.426;10.868;2022-09-09T06:54:12;96040.89;;;15.00;92.88
16834;BME280;8533;48.426;10.868;2022-09-09T06:56:41;96031.08;;;15.11;91.36
16834;BME280;8533;48.426;10.868;2022-09-09T06:59:10;96030.42;;;15.26;90.38
16834;BME280;8533;48.426;10.868;2022-09-09T07:01:40;96034.80;;;15.39;89.60
16834;BME280;8533;48.426;10.868;2022-09-09T07:04:08;96034.02;;;15.38;88.75
16834;BME280;8533;48.426;10.868;2022-09-09T07:06:39;96036.34;;;15.42;88.38
16834;BME280;8533;48.426;10.868;2022-09-09T07:09:09;96038.16;;;15.47;89.00
16834;BME280;8533;48.426;10.868;2022-09-09T07:11:46;96056.81;;;15.53;87.97
16834;BME280;8533;48.426;10.868;2022-09-09T07:14:10;96073.17;;;15.55;88.93
16834;BME280;8533;48.426;10.868;2022-09-09T07:16:44;96071.28;;;15.58;88.92
16834;BME280;8533;48.426;10.868;2022-09-09T07:19:12;96076.55;;;15.60;89.83
16834;BME280;8533;48.426;10.868;2022-09-09T07:21:40;96073.92;;;15.58;90.42
16834;BME280;8533;48.426;10.868;2022-09-09T07:24:08;96073.45;;;15.53;90.89
16834;BME280;8533;48.426;10.868;2022-09-09T07:26:38;96070.33;;;15.46;91.15
16834;BME280;8533;48.426;10.868;2022-09-09T07:29:07;96075.34;;;15.45;91.84
16834;BME280;8533;48.426;10.868;2022-09-09T07:31:37;96077.39;;;15.51;92.27
16834;BME280;8533;48.426;10.868;2022-09-09T07:34:06;96082.13;;;15.51;91.36
16834;BME280;8533;48.426;10.868;2022-09-09T07:36:36;96076.86;;;15.51;90.50
16834;BME280;8533;48.426;10.868;2022-09-09T07:39:07;96071.59;;;15.51;91.09
16834;BME280;8533;48.426;10.868;2022-09-09T07:41:46;96081.09;;;15.55;90.51
16834;BME280;8533;48.426;10.868;2022-09-09T07:44:17;96081.82;;;15.60;91.96
16834;BME280;8533;48.426;10.868;2022-09-09T07:46:42;96071.27;;;15.60;90.06
16834;BME280;8533;48.426;10.868;2022-09-09T07:49:11;96090.98;;;15.65;90.66
16834;BME280;8533;48.426;10.868;2022-09-09T07:51:41;96089.93;;;15.67;91.18
16834;BME280;8533;48.426;10.868;2022-09-09T07:54:11;96090.20;;;15.65;90.64
16834;BME280;8533;48.426;10.868;2022-09-09T07:56:41;96093.95;;;15.59;91.36
16834;BME280;8533;48.426;10.868;2022-09-09T07:59:09;96083.47;;;15.54;91.75
16834;BME280;8533;48.426;10.868;2022-09-09T08:01:41;96085.34;;;15.48;92.86
16834;BME280;8533;48.426;10.868;2022-09-09T08:04:12;96079.36;;;15.38;93.74
16834;BME280;8533;48.426;10.868;2022-09-09T08:06:56;96070.66;;;15.37;94.66
16834;BME280;8533;48.426;10.868;2022-09-09T08:09:19;96079.29;;;15.45;95.53
16834;BME280;8533;48.426;10.868;2022-09-09T08:11:47;96081.68;;;15.42;94.69
16834;BME280;8533;48.426;10.868;2022-09-09T08:14:15;96085.36;;;15.43;94.21
16834;BME280;8533;48.426;10.868;2022-09-09T08:16:45;96095.84;;;15.51;95.41
16834;BME280;8533;48.426;10.868;2022-09-09T08:19:13;96098.20;;;15.52;93.62
16834;BME280;8533;48.426;10.868;2022-09-09T08:21:43;96099.69;;;15.66;93.95
16834;BME280;8533;48.426;10.868;2022-09-09T08:24:12;96094.98;;;15.89;93.86
16834;BME280;8533;48.426;10.868;2022-09-09T08:26:43;96100.32;;;16.11;93.27
16834;BME280;8533;48.426;10.868;2022-09-09T08:29:12;96097.53;;;16.23;90.95
16834;BME280;8533;48.426;10.868;2022-09-09T08:31:43;96089.04;;;16.29;88.37
16834;BME280;8533;48.426;10.868;2022-09-09T08:34:11;96098.44;;;16.80;88.14
16834;BME280;8533;48.426;10.868;2022-09-09T08:36:41;96093.05;;;17.25;84.50
16834;BME280;8533;48.426;10.868;2022-09-09T08:39:11;96090.98;;;18.01;81.24
16834;BME280;8533;48.426;10.868;2022-09-09T08:45:03;96080.80;;;19.12;75.68
16834;BME280;8533;48.426;10.868;2022-09-09T08:52:31;96096.42;;;18.64;76.35
16834;BME280;8533;48.426;10.868;2022-09-09T08:57:46;96100.83;;;18.68;75.65
16834;BME280;8533;48.426;10.868;2022-09-09T09:00:15;96103.72;;;18.70;75.06
16834;BME280;8533;48.426;10.868;2022-09-09T09:10:44;96095.98;;;18.84;73.96
16834;BME280;8533;48.426;10.868;2022-09-09T09:13:20;96089.03;;;18.75;76.14
16834;BME280;8533;48.426;10.868;2022-09-09T09:15:53;96093.78;;;19.00;73.36
16834;BME280;8533;48.426;10.868;2022-09-09T09:18:17;96088.38;;;19.16;73.57
16834;BME280;8533;48.426;10.868;2022-09-09T09:23:22;96089.97;;;18.92;73.05
16834;BME280;8533;48.426;10.868;2022-09-09T09:25:52;96090.30;;;19.02;75.01
16834;BME280;8533;48.426;10.868;2022-09-09T09:28:26;96087.52;;;19.07;75.30
16834;BME280;8533;48.426;10.868;2022-09-09T09:33:42;96087.16;;;18.89;75.20
16834;BME280;8533;48.426;10.868;2022-09-09T09:36:09;96085.91;;;18.73;76.38
16834;BME280;8533;48.426;10.868;2022-09-09T09:38:37;96089.19;;;18.81;76.30
16834;BME280;8533;48.426;10.868;2022-09-09T09:41:04;96082.44;;;18.86;75.68
16834;BME280;8533;48.426;10.868;2022-09-09T09:43:34;96085.97;;;19.39;74.54
16834;BME280;8533;48.426;10.868;2022-09-09T09:46:05;96082.38;;;19.58;74.19
16834;BME280;8533;48.426;10.868;2022-09-09T09:48:32;96077.52;;;19.71;73.38
16834;BME280;8533;48.426;10.868;2022-09-09T09:51:12;96076.23;;;19.60;73.20
16834;BME280;8533;48.426;10.868;2022-09-09T09:53:41;96074.47;;;19.66;74.30
16834;BME280;8533;48.426;10.868;2022-09-09T09:56:11;96084.59;;;19.64;72.83
16834;BME280;8533;48.426;10.868;2022-09-09T09:58:49;96077.26;;;19.50;73.69
16834;BME280;8533;48.426;10.868;2022-09-09T10:03:59;96084.44;;;19.50;75.37
16834;BME280;8533;48.426;10.868;2022-09-09T10:06:33;96085.22;;;19.61;74.15
16834;BME280;8533;48.426;10.868;2022-09-09T10:09:04;96086.41;;;19.55;75.37
16834;BME280;8533;48.426;10.868;2022-09-09T10:11:44;96085.03;;;19.58;74.25
16834;BME280;8533;48.426;10.868;2022-09-09T10:14:13;96081.53;;;19.49;73.39
16834;BME280;8533;48.426;10.868;2022-09-09T10:19:31;96084.25;;;19.57;73.32
16834;BME280;8533;48.426;10.868;2022-09-09T10:24:48;96081.14;;;19.86;70.86
16834;BME280;8533;48.426;10.868;2022-09-09T10:27:36;96070.52;;;20.45;70.73
16834;BME280;8533;48.426;10.868;2022-09-09T10:30:22;96072.77;;;20.86;69.03
16834;BME280;8533;48.426;10.868;2022-09-09T10:33:05;96074.72;;;20.92;67.74
16834;BME280;8533;48.426;10.868;2022-09-09T10:35:50;96068.54;;;20.85;66.58
16834;BME280;8533;48.426;10.868;2022-09-09T10:38:17;96072.20;;;20.70;66.21
16834;BME280;8533;48.426;10.868;2022-09-09T10:43:45;96072.38;;;20.45;68.19
16834;BME280;8533;48.426;10.868;2022-09-09T10:57:32;96067.77;;;19.69;70.40
16834;BME280;8533;48.426;10.868;2022-09-09T11:00:04;96078.09;;;19.48;70.64
16834;BME280;8533;48.426;10.868;2022-09-09T11:02:34;96074.22;;;19.43;72.95
16834;BME280;8533;48.426;10.868;2022-09-09T11:07:48;96076.14;;;19.40;72.40
16834;BME280;8533;48.426;10.868;2022-09-09T11:10:28;96075.73;;;19.35;72.37
16834;BME280;8533;48.426;10.868;2022-09-09T11:12:54;96073.56;;;19.37;72.30
16834;BME280;8533;48.426;10.868;2022-09-09T11:15:28;96074.91;;;19.49;73.15
16834;BME280;8533;48.426;10.868;2022-09-09T11:17:56;96073.59;;;19.46;72.58
16834;BME280;8533;48.426;10.868;2022-09-09T11:20:26;96068.86;;;19.46;71.43
16834;BME280;8533;48.426;10.868;2022-09-09T11:23:09;96071.70;;;19.49;71.47
16834;BME280;8533;48.426;10.868;2022-09-09T11:25:37;96067.97;;;19.50;71.73
16834;BME280;8533;48.426;10.868;2022-09-09T11:28:19;96071.90;;;19.53;70.90
16834;BME280;8533;48.426;10.868;2022-09-09T11:30:45;96065.83;;;19.72;71.59
16834;BME280;8533;48.426;10.868;2022-09-09T11:38:54;96062.57;;;19.75;72.16
16834;BME280;8533;48.426;10.868;2022-09-09T11:41:20;96056.72;;;19.75;72.01
16834;BME280;8533;48.426;10.868;2022-09-09T11:43:50;96059.72;;;19.83;71.81
16834;BME280;8533;48.426;10.868;2022-09-09T11:46:31;96055.55;;;19.79;70.85
16834;BME280;8533;48.426;10.868;2022-09-09T11:49:03;96056.38;;;19.88;69.63
16834;BME280;8533;48.426;10.868;2022-09-09T11:51:31;96053.70;;;19.99;71.04
16834;BME280;8533;48.426;10.868;2022-09-09T11:56:50;96055.33;;;20.37;67.80
16834;BME280;8533;48.426;10.868;2022-09-09T11:59:29;96046.23;;;20.49;68.29
16834;BME280;8533;48.426;10.868;2022-09-09T12:04:44;96045.80;;;20.90;66.67
16834;BME280;8533;48.426;10.868;2022-09-09T12:12:28;96037.80;;;22.35;60.64
16834;BME280;8533;48.426;10.868;2022-09-09T12:15:16;96043.37;;;22.36;61.49
16834;BME280;8533;48.426;10.868;2022-09-09T12:17:30;96036.31;;;22.46;60.62
16834;BME280;8533;48.426;10.868;2022-09-09T12:20:14;96045.56;;;22.34;60.60
16834;BME280;8533;48.426;10.868;2022-09-09T12:22:59;96040.75;;;22.28;59.87
16834;BME280;8533;48.426;10.868;2022-09-09T12:28:20;96036.87;;;21.93;62.06
16834;BME280;8533;48.426;10.868;2022-09-09T12:33:35;96033.12;;;22.68;60.25
16834;BME280;8533;48.426;10.868;2022-09-09T12:36:04;96032.32;;;23.03;59.25
16834;BME280;8533;48.426;10.868;2022-09-09T12:38:36;96027.50;;;22.90;59.15
16834;BME280;8533;48.426;10.868;2022-09-09T12:41:04;96020.98;;;22.79;60.42
16834;BME280;8533;48.426;10.868;2022-09-09T12:43:32;96021.85;;;23.18;60.39
16834;BME280;8533;48.426;10.868;2022-09-09T12:46:07;96016.50;;;22.92;60.21
16834;BME280;8533;48.426;10.868;2022-09-09T12:48:40;96019.46;;;23.11;59.11
16834;BME280;8533;48.426;10.868;2022-09-09T12:51:26;96023.89;;;23.01;58.80
16834;BME280;8533;48.426;10.868;2022-09-09T12:53:54;96018.09;;;23.26;59.17
16834;BME280;8533;48.426;10.868;2022-09-09T12:56:30;96008.91;;;22.88;61.13
16834;BME280;8533;48.426;10.868;2022-09-09T12:58:55;96011.88;;;22.80;61.72
16834;BME280;8533;48.426;10.868;2022-09-09T13:01:28;96009.09;;;22.76;60.06
16834;BME280;8533;48.426;10.868;2022-09-09T13:03:56;96005.40;;;22.25;61.35
16834;BME280;8533;48.426;10.868;2022-09-09T13:06:26;96008.47;;;22.06;62.84
16834;BME280;8533;48.426;10.868;2022-09-09T13:08:59;96001.13;;;22.03;62.67
16834;BME280;8533;48.426;10.868;2022-09-09T13:14:01;95994.02;;;21.54;64.54
16834;BME280;8533;48.426;10.868;2022-09-09T13:16:33;95989.34;;;21.66;64.16
16834;BME280;8533;48.426;10.868;2022-09-09T13:19:15;95984.59;;;22.18;62.41
16834;BME280;8533;48.426;10.868;2022-09-09T13:21:43;95981.47;;;22.72;61.22
16834;BME280;8533;48.426;10.868;2022-09-09T13:24:33;95974.77;;;23.08;60.47
16834;BME280;8533;48.426;10.868;2022-09-09T13:27:05;95975.72;;;23.36;59.43
16834;BME280;8533;48.426;10.868;2022-09-09T13:29:32;95966.05;;;23.32;57.58
16834;BME280;8533;48.426;10.868;2022-09-09T13:32:17;95967.79;;;22.68;58.85
16834;BME280;8533;48.426;10.868;2022-09-09T13:34:56;95967.52;;;22.04;61.28
16834;BME280;8533;48.426;10.868;2022-09-09T13:37:39;95963.09;;;22.08;61.38
16834;BME280;8533;48.426;10.868;2022-09-09T13:40:12;95958.19;;;22.04;59.65
16834;BME280;8533;48.426;10.868;2022-09-09T13:42:39;95948.10;;;21.57;60.23
16834;BME280;8533;48.426;10.868;2022-09-09T13:45:14;95945.53;;;21.40;60.61
16834;BME280;8533;48.426;10.868;2022-09-09T13:47:36;95943.69;;;21.15;61.41
16834;BME280;8533;48.426;10.868;2022-09-09T13:52:54;95942.95;;;20.54;64.46
16834;BME280;8533;48.426;10.868;2022-09-09T13:55:29;95945.34;;;20.18;65.23
16834;BME280;8533;48.426;10.868;2022-09-09T13:57:59;95957.80;;;20.01;65.60
16834;BME280;8533;48.426;10.868;2022-09-09T14:00:30;95969.64;;;19.86;64.62
16834;BME280;8533;48.426;10.868;2022-09-09T14:02:57;96013.37;;;19.69;65.58
16834;BME280;8533;48.426;10.868;2022-09-09T14:05:27;96005.73;;;19.34;64.86
16834;BME280;8533;48.426;10.868;2022-09-09T14:07:54;96020.98;;;19.06;69.01
16834;BME280;8533;48.426;10.868;2022-09-09T14:10:22;96037.14;;;18.60;72.91
16834;BME280;8533;48.426;10.868;2022-09-09T14:12:50;96051.25;;;18.03;79.29
16834;BME280;8533;48.426;10.868;2022-09-09T14:15:19;96045.16;;;17.59;85.60
16834;BME280;8533;48.426;10.868;2022-09-09T14:17:47;96019.47;;;17.30;86.32
16834;BME280;8533;48.426;10.868;2022-09-09T14:20:15;96006.23;;;17.46;85.05
16834;BME280;8533;48.426;10.868;2022-09-09T14:22:43;95995.91;;;17.61;84.49
16834;BME280;8533;48.426;10.868;2022-09-09T14:25:11;95996.40;;;17.79;89.08
16834;BME280;8533;48.426;10.868;2022-09-09T14:27:42;95995.08;;;17.79;89.73
16834;BME280;8533;48.426;10.868;2022-09-09T14:30:10;95993.50;;;17.78;89.33
16834;BME280;8533;48.426;10.868;2022-09-09T14:32:39;95981.00;;;17.95;85.99
16834;BME280;8533;48.426;10.868;2022-09-09T14:35:07;95983.02;;;17.86;89.40
16834;BME280;8533;48.426;10.868;2022-09-09T14:37:35;95984.48;;;17.92;87.02
16834;BME280;8533;48.426;10.868;2022-09-09T14:40:03;95989.38;;;18.13;89.51
16834;BME280;8533;48.426;10.868;2022-09-09T14:42:31;95988.30;;;18.14;86.57
16834;BME280;8533;48.426;10.868;2022-09-09T14:44:58;95992.36;;;18.09;85.51
16834;BME280;8533;48.426;10.868;2022-09-09T14:47:26;95987.16;;;18.17;84.38
16834;BME280;8533;48.426;10.868;2022-09-09T14:49:54;95991.71;;;18.28;83.63
16834;BME280;8533;48.426;10.868;2022-09-09T14:52:22;95993.12;;;18.37;82.98
16834;BME280;8533;48.426;10.868;2022-09-09T14:54:49;95994.27;;;18.44;81.45
16834;BME280;8533;48.426;10.868;2022-09-09T14:57:18;95991.22;;;18.51;82.25
16834;BME280;8533;48.426;10.868;2022-09-09T14:59:45;95997.05;;;18.39;77.36
16834;BME280;8533;48.426;10.868;2022-09-09T15:02:13;95998.75;;;18.33;74.06